createdAt,value
2022-11-10T00:00:29.952Z,16.00
2022-11-10T00:03:16.041Z,16.08
2022-11-10T00:06:06.661Z,12.30
2022-11-10T00:08:52.421Z,12.77
2022-11-10T00:11:38.391Z,14.07
2022-11-10T00:14:42.761Z,16.42
2022-11-10T00:17:28.829Z,11.10
2022-11-10T00:20:14.694Z,12.70
2022-11-10T00:23:00.791Z,12.98
2022-11-10T00:25:46.693Z,22.45
2022-11-10T00:28:32.840Z,12.90
2022-11-10T00:31:18.602Z,16.42
2022-11-10T00:34:04.293Z,12.98
2022-11-10T00:36:50.192Z,10.82
2022-11-10T00:39:36.982Z,15.15
2022-11-10T00:42:22.771Z,12.80
2022-11-10T00:45:10.244Z,17.08
2022-11-10T00:47:55.726Z,15.13
2022-11-10T00:50:42.280Z,12.93
2022-11-10T00:53:28.283Z,10.98
2022-11-10T00:56:14.222Z,10.52
2022-11-10T00:59:00.231Z,11.75
2022-11-10T01:01:46.162Z,16.10
2022-11-10T01:04:32.163Z,13.15
2022-11-10T01:07:18.283Z,11.63
2022-11-10T01:10:04.567Z,8.98
2022-11-10T01:12:50.343Z,12.73
2022-11-10T01:15:40.444Z,14.35
2022-11-10T01:18:26.482Z,14.13
2022-11-10T01:21:12.309Z,17.13
2022-11-10T01:23:58.565Z,14.95
2022-11-10T01:26:44.113Z,15.77
2022-11-10T01:29:29.914Z,13.27
2022-11-10T01:32:15.902Z,12.05
2022-11-10T01:35:01.721Z,12.30
2022-11-10T01:37:47.572Z,12.43
2022-11-10T01:40:33.694Z,12.93
2022-11-10T01:43:19.740Z,15.82
2022-11-10T01:46:07.504Z,16.95
2022-11-10T01:48:57.893Z,13.00
2022-11-10T01:51:55.714Z,20.15
2022-11-10T01:54:44.762Z,23.50
2022-11-10T01:57:30.714Z,17.20
2022-11-10T02:00:18.105Z,12.35
2022-11-10T02:03:40.551Z,14.48
2022-11-10T02:06:30.686Z,14.38
2022-11-10T02:09:17.262Z,14.57
2022-11-10T02:12:03.063Z,12.93
2022-11-10T02:14:48.869Z,9.85
2022-11-10T02:17:35.419Z,13.45
2022-11-10T02:20:22.270Z,13.52
2022-11-10T02:23:35.589Z,10.35
2022-11-10T02:26:26.029Z,10.75
2022-11-10T02:29:11.850Z,13.13
2022-11-10T02:31:57.860Z,14.70
2022-11-10T02:34:44.315Z,11.13
2022-11-10T02:37:30.223Z,9.52
2022-11-10T02:40:16.510Z,7.38
2022-11-10T02:43:03.729Z,7.72
2022-11-10T02:45:49.328Z,10.50
2022-11-10T02:48:35.379Z,16.02
2022-11-10T02:51:21.309Z,8.90
2022-11-10T02:54:07.329Z,7.22
2022-11-10T02:56:53.370Z,11.32
2022-11-10T02:59:39.221Z,10.45
2022-11-10T03:02:28.503Z,10.25
2022-11-10T03:05:18.149Z,11.60
2022-11-10T03:08:04.648Z,14.55
2022-11-10T03:10:54.399Z,12.90
2022-11-10T03:14:00.411Z,13.43
2022-11-10T03:16:45.850Z,9.43
2022-11-10T03:19:31.891Z,13.50
2022-11-10T03:22:17.869Z,7.50
2022-11-10T03:25:04.511Z,9.98
2022-11-10T03:27:50.216Z,8.90
2022-11-10T03:30:36.109Z,8.52
2022-11-10T03:33:22.630Z,10.55
2022-11-10T03:36:08.661Z,10.10
2022-11-10T03:38:54.828Z,17.23
2022-11-10T03:41:40.530Z,11.55
2022-11-10T03:44:26.439Z,10.75
2022-11-10T03:47:12.323Z,8.90
2022-11-10T03:49:58.209Z,9.68
2022-11-10T03:52:45.871Z,8.20
2022-11-10T03:55:31.690Z,7.20
2022-11-10T03:58:17.579Z,15.60
2022-11-10T04:01:03.762Z,11.27
2022-11-10T04:03:51.632Z,11.25
2022-11-10T04:06:56.176Z,10.00
2022-11-10T04:09:41.879Z,12.30
2022-11-10T04:12:46.470Z,15.70
2022-11-10T04:15:44.360Z,13.15
2022-11-10T04:18:30.368Z,10.02
2022-11-10T04:21:16.488Z,8.40
2022-11-10T04:24:02.119Z,9.57
2022-11-10T04:26:49.099Z,9.43
2022-11-10T04:29:35.203Z,6.55
2022-11-10T04:32:20.766Z,10.05
2022-11-10T04:35:07.059Z,8.32
2022-11-10T04:37:52.949Z,11.45
2022-11-10T04:40:38.819Z,8.52
2022-11-10T04:43:25.066Z,12.20
2022-11-10T04:46:29.799Z,14.02
2022-11-10T04:52:01.323Z,13.77
2022-11-10T04:54:47.121Z,11.18
2022-11-10T04:57:33.179Z,11.07
2022-11-10T05:00:19.500Z,15.18
2022-11-10T05:03:08.328Z,11.13
2022-11-10T05:05:54.106Z,10.45
2022-11-10T05:08:41.538Z,8.07
2022-11-10T05:11:27.344Z,8.95
2022-11-10T05:14:13.234Z,7.93
2022-11-10T05:16:59.086Z,9.75
2022-11-10T05:19:47.465Z,14.38
2022-11-10T05:22:33.406Z,7.88
2022-11-10T05:25:19.455Z,9.23
2022-11-10T05:28:06.085Z,9.75
2022-11-10T05:30:52.596Z,10.20
2022-11-10T05:33:39.165Z,11.43
2022-11-10T05:36:24.704Z,7.80
2022-11-10T05:39:10.644Z,6.15
2022-11-10T05:41:56.647Z,10.68
2022-11-10T05:44:42.545Z,9.00
2022-11-10T05:47:28.645Z,7.18
2022-11-10T05:50:14.815Z,6.25
2022-11-10T05:53:00.505Z,8.05
2022-11-10T05:55:46.476Z,9.23
2022-11-10T05:58:32.345Z,13.80
2022-11-10T06:01:18.264Z,9.93
2022-11-10T06:04:04.223Z,10.95
2022-11-10T06:06:50.209Z,14.50
2022-11-10T06:09:36.695Z,12.13
2022-11-10T06:12:25.097Z,9.18
2022-11-10T06:15:11.534Z,10.65
2022-11-10T06:17:58.434Z,15.20
2022-11-10T06:20:45.987Z,9.07
2022-11-10T06:23:31.974Z,11.15
2022-11-10T06:26:28.683Z,9.48
2022-11-10T06:29:14.823Z,8.02
2022-11-10T06:32:00.523Z,7.40
2022-11-10T06:34:46.318Z,7.50
2022-11-10T06:37:32.274Z,6.63
2022-11-10T06:40:18.348Z,8.65
2022-11-10T06:43:04.684Z,7.25
2022-11-10T06:45:50.634Z,6.70
2022-11-10T06:48:36.334Z,9.68
2022-11-10T06:51:22.172Z,11.55
2022-11-10T06:54:08.193Z,6.80
2022-11-10T06:56:54.055Z,6.63
2022-11-10T06:59:39.946Z,13.13
2022-11-10T07:02:26.004Z,8.35
2022-11-10T07:05:11.944Z,7.05
2022-11-10T07:08:06.505Z,9.95
2022-11-10T07:13:40.114Z,6.95
2022-11-10T07:16:25.805Z,7.85
2022-11-10T07:19:11.641Z,7.68
2022-11-10T07:21:57.706Z,7.60
2022-11-10T07:24:43.284Z,8.57
2022-11-10T07:27:29.333Z,9.15
2022-11-10T07:30:15.216Z,7.70
2022-11-10T07:33:12.654Z,7.40
2022-11-10T07:36:00.114Z,7.45
2022-11-10T07:38:46.196Z,5.82
2022-11-10T07:41:32.394Z,6.72
2022-11-10T07:44:18.266Z,6.75
2022-11-10T07:47:04.365Z,6.75
2022-11-10T07:49:50.375Z,8.38
2022-11-10T07:52:36.319Z,7.90
2022-11-10T07:55:22.315Z,6.60
2022-11-10T07:58:09.363Z,7.18
2022-11-10T08:00:55.269Z,5.70
2022-11-10T08:03:41.326Z,9.13
2022-11-10T08:06:29.188Z,6.85
2022-11-10T08:09:15.567Z,5.55
2022-11-10T08:12:01.715Z,12.73
2022-11-10T08:14:47.665Z,8.43
2022-11-10T08:17:33.625Z,13.45
2022-11-10T08:20:19.666Z,7.68
2022-11-10T08:23:07.124Z,5.70
2022-11-10T08:25:53.464Z,8.45
2022-11-10T08:28:39.424Z,35.22
2022-11-10T08:31:25.395Z,16.23
2022-11-10T08:34:11.514Z,16.88
2022-11-10T08:36:57.557Z,10.63
2022-11-10T08:39:43.408Z,12.02
2022-11-10T08:42:29.066Z,6.32
2022-11-10T08:45:15.944Z,8.88
2022-11-10T08:48:08.128Z,8.75
2022-11-10T08:50:54.377Z,13.00
2022-11-10T08:53:40.156Z,7.63
2022-11-10T08:56:26.184Z,10.43
2022-11-10T08:59:12.195Z,11.40
2022-11-10T09:01:58.467Z,18.40
2022-11-10T09:04:44.021Z,24.52
2022-11-10T09:07:31.185Z,6.57
2022-11-10T09:10:17.335Z,47.60
2022-11-10T09:13:04.312Z,6.28
2022-11-10T09:15:50.065Z,18.20
2022-11-10T09:18:36.327Z,17.33
2022-11-10T09:21:21.975Z,22.88
2022-11-10T09:24:08.214Z,7.28
2022-11-10T09:26:53.846Z,7.65
2022-11-10T09:29:39.854Z,8.52
2022-11-10T09:32:25.904Z,27.48
2022-11-10T09:35:11.828Z,33.28
2022-11-10T09:37:57.954Z,16.67
2022-11-10T09:41:07.606Z,36.45
2022-11-10T09:43:53.186Z,36.05
2022-11-10T09:46:46.634Z,23.33
2022-11-10T09:49:38.425Z,8.40
2022-11-10T09:52:27.685Z,43.05
2022-11-10T09:55:24.853Z,17.75
2022-11-10T09:58:13.354Z,9.27
2022-11-10T10:01:36.786Z,13.55
2022-11-10T10:04:46.583Z,16.48
2022-11-10T10:07:51.792Z,27.58
2022-11-10T10:10:58.236Z,10.77
2022-11-10T10:14:16.336Z,11.27
2022-11-10T10:17:29.595Z,23.35
2022-11-10T10:20:24.514Z,13.80
2022-11-10T10:23:35.225Z,9.35
2022-11-10T10:26:37.755Z,9.50
2022-11-10T10:29:36.074Z,6.50
2022-11-10T10:32:23.485Z,24.63
2022-11-10T10:35:17.595Z,26.85
2022-11-10T10:38:09.964Z,10.80
2022-11-10T10:41:12.358Z,23.23
2022-11-10T10:44:03.135Z,9.18
2022-11-10T10:46:56.561Z,19.85
2022-11-10T10:49:42.165Z,28.58
2022-11-10T10:52:28.245Z,29.33
2022-11-10T10:55:14.426Z,11.95
2022-11-10T10:58:23.286Z,17.95
2022-11-10T11:01:18.397Z,14.98
2022-11-10T11:04:36.546Z,12.90
2022-11-10T11:07:26.102Z,12.38
2022-11-10T11:10:23.885Z,8.38
2022-11-10T11:13:23.174Z,9.70
2022-11-10T11:16:12.578Z,15.80
2022-11-10T11:18:58.986Z,20.65
2022-11-10T11:22:33.185Z,11.82
2022-11-10T11:25:42.234Z,12.00
2022-11-10T11:28:55.700Z,10.73
2022-11-10T11:31:51.034Z,9.43
2022-11-10T11:35:00.525Z,14.05
2022-11-10T11:38:10.905Z,9.90
2022-11-10T11:41:24.734Z,14.38
2022-11-10T11:44:38.734Z,9.52
2022-11-10T11:47:52.989Z,11.10
2022-11-10T11:50:56.367Z,12.10
2022-11-10T11:53:51.624Z,8.90
2022-11-10T11:56:45.815Z,16.00
2022-11-10T11:59:45.315Z,10.00
2022-11-10T12:02:53.516Z,16.60
2022-11-10T12:05:45.193Z,10.65
2022-11-10T12:08:45.434Z,12.88
2022-11-10T12:11:45.624Z,11.57
2022-11-10T12:14:47.369Z,9.95
2022-11-10T12:17:35.692Z,10.32
2022-11-10T12:20:27.305Z,8.35
2022-11-10T12:23:18.885Z,10.48
2022-11-10T12:26:29.408Z,12.23
2022-11-10T12:29:52.614Z,10.25
2022-11-10T12:32:53.743Z,7.95
2022-11-10T12:35:43.422Z,12.32
2022-11-10T12:38:41.355Z,10.07
2022-11-10T12:41:33.296Z,14.88
2022-11-10T12:44:28.772Z,12.25
2022-11-10T12:47:20.115Z,11.50
2022-11-10T12:50:27.439Z,7.70
2022-11-10T12:53:24.304Z,11.45
2022-11-10T12:56:22.463Z,9.63
2022-11-10T12:59:20.437Z,10.70
2022-11-10T13:02:43.422Z,10.55
2022-11-10T13:05:41.099Z,9.25
2022-11-10T13:08:33.198Z,14.90
2022-11-10T13:11:22.166Z,13.40
2022-11-10T13:14:29.203Z,9.55
2022-11-10T13:17:27.263Z,9.80
2022-11-10T13:20:50.783Z,10.50
2022-11-10T13:23:48.933Z,10.10
2022-11-10T13:26:41.032Z,10.00
2022-11-10T13:29:45.514Z,10.75
2022-11-10T13:32:34.222Z,11.35
2022-11-10T13:35:39.973Z,10.18
2022-11-10T13:38:38.317Z,12.02
2022-11-10T13:41:26.729Z,9.57
2022-11-10T13:44:24.592Z,11.13
2022-11-10T13:47:10.192Z,11.95
2022-11-10T13:50:34.122Z,9.32
2022-11-10T13:53:56.866Z,12.50
2022-11-10T13:57:03.474Z,12.50
2022-11-10T13:59:56.773Z,16.05
2022-11-10T14:02:47.319Z,10.17
2022-11-10T14:05:38.167Z,13.38
2022-11-10T14:08:28.883Z,13.35
2022-11-10T14:11:45.725Z,8.38
2022-11-10T14:15:30.186Z,10.40
2022-11-10T14:18:49.534Z,15.77
2022-11-10T14:21:44.094Z,13.18
2022-11-10T14:24:35.805Z,7.65
2022-11-10T14:27:27.905Z,11.50
2022-11-10T14:30:25.050Z,6.03
2022-11-10T14:33:13.965Z,14.32
2022-11-10T14:36:09.064Z,9.07
2022-11-10T14:38:54.927Z,14.52
2022-11-10T14:41:47.870Z,10.70
2022-11-10T14:44:35.165Z,10.40
2022-11-10T14:47:27.655Z,8.32
2022-11-10T14:50:35.495Z,9.95
2022-11-10T14:53:29.736Z,12.63
2022-11-10T14:56:21.145Z,12.90
2022-11-10T14:59:12.404Z,10.13
2022-11-10T15:02:00.747Z,9.48
2022-11-10T15:04:51.360Z,10.35
2022-11-10T15:07:37.157Z,11.07
2022-11-10T15:10:47.778Z,6.65
2022-11-10T15:13:38.145Z,7.90
2022-11-10T15:16:27.206Z,9.23
2022-11-10T15:19:31.295Z,9.23
2022-11-10T15:22:20.442Z,9.68
2022-11-10T15:25:16.065Z,11.18
2022-11-10T15:28:06.702Z,7.03
2022-11-10T15:30:55.604Z,10.27
2022-11-10T15:33:47.625Z,8.43
2022-11-10T15:36:36.295Z,9.88
2022-11-10T15:39:26.909Z,8.70
2022-11-10T15:42:15.674Z,7.65
2022-11-10T15:45:01.549Z,7.75
2022-11-10T15:47:47.517Z,7.13
2022-11-10T15:50:33.625Z,8.95
2022-11-10T15:53:46.752Z,8.45
2022-11-10T15:56:32.424Z,7.78
2022-11-10T15:59:18.234Z,9.68
2022-11-10T16:02:20.985Z,8.40
2022-11-10T16:05:13.403Z,8.27
2022-11-10T16:07:59.345Z,6.97
2022-11-10T16:10:48.186Z,7.72
2022-11-10T16:13:35.644Z,8.25
2022-11-10T16:16:23.992Z,8.82
2022-11-10T16:19:13.600Z,8.70
2022-11-10T16:21:59.565Z,9.30
2022-11-10T16:24:46.426Z,8.57
2022-11-10T16:27:32.184Z,10.23
2022-11-10T16:30:18.135Z,7.97
2022-11-10T16:33:04.715Z,8.45
2022-11-10T16:35:52.876Z,10.35
2022-11-10T16:38:38.855Z,9.10
2022-11-10T16:41:24.827Z,8.13
2022-11-10T16:44:13.265Z,11.50
2022-11-10T16:46:59.157Z,13.77
2022-11-10T16:49:46.135Z,8.75
2022-11-10T16:52:31.905Z,10.25
2022-11-10T16:55:17.856Z,9.40
2022-11-10T16:58:03.796Z,23.30
2022-11-10T17:00:50.036Z,24.35
2022-11-10T17:03:46.247Z,26.48
2022-11-10T17:06:32.365Z,22.90
2022-11-10T17:09:22.255Z,22.52
2022-11-10T17:12:15.880Z,17.95
2022-11-10T17:15:01.835Z,17.65
2022-11-10T17:17:51.726Z,14.43
2022-11-10T17:20:40.535Z,15.35
2022-11-10T17:23:27.124Z,14.52
2022-11-10T17:26:15.915Z,15.40
2022-11-10T17:29:01.976Z,16.67
2022-11-10T17:31:50.512Z,16.00
2022-11-10T17:34:36.505Z,23.45
2022-11-10T17:37:22.891Z,29.63
2022-11-10T17:40:23.655Z,29.05
2022-11-10T17:43:12.295Z,16.13
2022-11-10T17:45:58.327Z,12.57
2022-11-10T17:48:44.616Z,11.52
2022-11-10T17:51:33.396Z,8.27
2022-11-10T17:54:19.296Z,10.93
2022-11-10T17:57:06.405Z,17.92
2022-11-10T17:59:52.686Z,8.55
2022-11-10T18:02:38.427Z,6.93
2022-11-10T18:05:24.445Z,6.00
2022-11-10T18:08:11.051Z,7.60
2022-11-10T18:10:56.696Z,10.18
2022-11-10T18:13:43.417Z,9.98
2022-11-10T18:16:29.067Z,9.80
2022-11-10T18:19:15.176Z,6.53
2022-11-10T18:22:01.097Z,5.15
2022-11-10T18:24:47.266Z,7.85
2022-11-10T18:27:33.446Z,8.32
2022-11-10T18:30:19.605Z,8.82
2022-11-10T18:33:05.956Z,7.32
2022-11-10T18:35:52.477Z,9.63
2022-11-10T18:38:38.449Z,11.20
2022-11-10T18:41:42.977Z,18.65
2022-11-10T18:44:29.835Z,10.15
2022-11-10T18:47:15.467Z,8.05
2022-11-10T18:50:01.379Z,7.55
2022-11-10T18:52:48.417Z,58.72
2022-11-10T18:55:33.974Z,47.17
2022-11-10T18:58:19.836Z,43.28
2022-11-10T19:01:07.561Z,120.63
2022-11-10T19:03:53.485Z,77.95
2022-11-10T19:06:40.368Z,76.25
2022-11-10T19:09:26.026Z,103.00
2022-11-10T19:12:12.616Z,27.77
2022-11-10T19:14:58.655Z,20.02
2022-11-10T19:17:44.495Z,22.45
2022-11-10T19:20:30.353Z,25.27
2022-11-10T19:23:16.506Z,27.88
2022-11-10T19:26:10.155Z,19.88
2022-11-10T19:28:56.666Z,7.75
2022-11-10T19:31:43.858Z,19.63
2022-11-10T19:34:31.756Z,12.90
2022-11-10T19:37:17.486Z,11.27
2022-11-10T19:40:04.307Z,15.40
2022-11-10T19:42:50.100Z,8.60
2022-11-10T19:45:35.936Z,18.70
2022-11-10T19:48:21.870Z,10.68
2022-11-10T19:51:11.040Z,18.27
2022-11-10T19:54:02.215Z,14.38
2022-11-10T19:56:47.996Z,22.27
2022-11-10T19:59:33.915Z,13.10
2022-11-10T20:02:20.004Z,9.23
2022-11-10T20:05:16.785Z,34.63
2022-11-10T20:08:11.645Z,31.30
2022-11-10T20:11:03.775Z,16.10
2022-11-10T20:13:54.641Z,9.40
2022-11-10T20:16:40.915Z,15.45
2022-11-10T20:19:26.877Z,15.30
2022-11-10T20:22:12.989Z,12.07
2022-11-10T20:24:59.215Z,24.10
2022-11-10T20:27:45.057Z,25.15
2022-11-10T20:30:31.126Z,14.57
2022-11-10T20:33:17.156Z,6.35
2022-11-10T20:36:17.452Z,5.72
2022-11-10T20:39:06.118Z,5.80
2022-11-10T20:41:52.817Z,7.10
2022-11-10T20:44:39.185Z,6.95
2022-11-10T20:47:25.692Z,7.75
2022-11-10T20:50:16.237Z,10.23
2022-11-10T20:53:06.014Z,6.63
2022-11-10T20:56:01.057Z,20.58
2022-11-10T20:58:47.574Z,18.77
2022-11-10T21:01:33.848Z,19.88
2022-11-10T21:04:19.886Z,17.27
2022-11-10T21:07:05.781Z,14.48
2022-11-10T21:09:51.795Z,17.83
2022-11-10T21:12:49.705Z,21.83
2022-11-10T21:15:39.560Z,14.63
2022-11-10T21:18:36.216Z,20.45
2022-11-10T21:21:34.128Z,7.60
2022-11-10T21:24:20.775Z,6.05
2022-11-10T21:27:06.716Z,7.28
2022-11-10T21:29:53.004Z,4.88
2022-11-10T21:32:38.614Z,5.43
2022-11-10T21:35:24.535Z,4.65
2022-11-10T21:38:12.534Z,5.05
2022-11-10T21:40:58.673Z,5.97
2022-11-10T21:43:44.263Z,8.00
2022-11-10T21:46:30.264Z,13.18
2022-11-10T21:49:16.234Z,8.98
2022-11-10T21:52:02.155Z,10.23
2022-11-10T21:54:48.125Z,5.47
2022-11-10T21:57:34.059Z,5.05
2022-11-10T22:00:20.249Z,4.43
2022-11-10T22:03:05.912Z,5.15
2022-11-10T22:05:51.824Z,5.45
2022-11-10T22:08:38.878Z,6.18
2022-11-10T22:11:43.403Z,6.20
2022-11-10T22:14:47.783Z,7.15
2022-11-10T22:17:52.273Z,6.57
2022-11-10T22:20:38.135Z,6.15
2022-11-10T22:23:44.145Z,6.10
2022-11-10T22:26:29.983Z,6.07
2022-11-10T22:29:15.975Z,5.68
2022-11-10T22:32:02.556Z,6.07
2022-11-10T22:34:48.422Z,6.15
2022-11-10T22:37:34.524Z,5.82
2022-11-10T22:40:38.922Z,5.50
2022-11-10T22:43:43.053Z,6.25
2022-11-10T22:46:29.285Z,6.88
2022-11-10T22:49:16.553Z,6.25
2022-11-10T22:52:02.483Z,5.90
2022-11-10T22:54:48.054Z,9.10
2022-11-10T22:57:34.072Z,7.40
2022-11-10T23:00:20.324Z,8.48
2022-11-10T23:03:06.204Z,13.30
2022-11-10T23:05:56.515Z,12.13
2022-11-10T23:08:43.476Z,10.27
2022-11-10T23:11:31.272Z,28.10
2022-11-10T23:14:17.315Z,8.45
2022-11-10T23:17:03.080Z,7.72
2022-11-10T23:19:49.138Z,7.90
2022-11-10T23:22:35.206Z,7.97
2022-11-10T23:25:21.177Z,8.52
2022-11-10T23:28:07.585Z,8.00
2022-11-10T23:30:53.880Z,7.75
2022-11-10T23:33:41.496Z,7.07
2022-11-10T23:36:28.768Z,7.53
2022-11-10T23:39:14.668Z,7.32
2022-11-10T23:42:00.585Z,13.13
2022-11-10T23:44:46.557Z,10.95
2022-11-10T23:47:32.577Z,13.73
2022-11-10T23:50:18.606Z,6.65
2022-11-10T23:53:04.546Z,21.42
2022-11-10T23:56:01.117Z,5.80
2022-11-10T23:58:46.957Z,6.38
